sensor_id;sensor_type;location;lat;lon;timestamp;pressure;altitude;pressure_sealevel;temperature;humidity
6530;BME280;3298;42.688;23.366;2022-12-18T00:02:01;51979.06;;;-145.06;75.12
6530;BME280;3298;42.688;23.366;2022-12-18T00:04:29;51952.47;;;-145.06;74.88
6530;BME280;3298;42.688;23.366;2022-12-18T00:06:56;51946.31;;;-145.06;74.67
6530;BME280;3298;42.688;23.366;2022-12-18T00:09:23;51962.69;;;-145.06;74.96
6530;BME280;3298;42.688;23.366;2022-12-18T00:11:50;51956.56;;;-145.06;75.08
6530;BME280;3298;42.688;23.366;2022-12-18T00:14:18;51938.13;;;-145.06;75.58
6530;BME280;3298;42.688;23.366;2022-12-18T00:16:45;51948.38;;;-145.06;75.24
6530;BME280;3298;42.688;23.366;2022-12-18T00:19:13;51956.56;;;-145.06;75.31
6530;BME280;3298;42.688;23.366;2022-12-18T00:21:40;51952.47;;;-145.06;74.83
6530;BME280;3298;42.688;23.366;2022-12-18T00:24:08;51954.50;;;-145.06;75.01
6530;BME280;3298;42.688;23.366;2022-12-18T00:26:36;51934.03;;;-145.06;75.03
6530;BME280;3298;42.688;23.366;2022-12-18T00:29:07;51991.34;;;-145.06;74.96
6530;BME280;3298;42.688;23.366;2022-12-18T00:31:36;51950.41;;;-145.06;76.02
6530;BME280;3298;42.688;23.366;2022-12-18T00:34:03;51958.59;;;-145.06;76.32
6530;BME280;3298;42.688;23.366;2022-12-18T00:36:31;51948.38;;;-145.06;75.84
6530;BME280;3298;42.688;23.366;2022-12-18T00:39:00;51950.41;;;-145.06;75.38
6530;BME280;3298;42.688;23.366;2022-12-18T00:41:27;51927.91;;;-145.06;75.16
6530;BME280;3298;42.688;23.366;2022-12-18T00:44:13;51927.91;;;-145.06;74.71
6530;BME280;3298;42.688;23.366;2022-12-18T00:46:42;51942.22;;;-145.06;74.62
6530;BME280;3298;42.688;23.366;2022-12-18T00:49:13;51929.94;;;-145.06;74.94
6530;BME280;3298;42.688;23.366;2022-12-18T00:51:40;51954.50;;;-145.06;75.24
6530;BME280;3298;42.688;23.366;2022-12-18T00:54:07;51938.13;;;-145.06;75.14
6530;BME280;3298;42.688;23.366;2022-12-18T00:56:35;51897.19;;;-145.06;74.00
6530;BME280;3298;42.688;23.366;2022-12-18T00:59:03;51923.81;;;-145.06;74.74
6530;BME280;3298;42.688;23.366;2022-12-18T01:01:30;51960.66;;;-145.06;75.34
6530;BME280;3298;42.688;23.366;2022-12-18T01:03:59;51915.63;;;-145.06;74.98
6530;BME280;3298;42.688;23.366;2022-12-18T01:06:26;51925.84;;;-145.06;75.38
6530;BME280;3298;42.688;23.366;2022-12-18T01:08:53;51909.47;;;-145.06;75.03
6530;BME280;3298;42.688;23.366;2022-12-18T01:11:20;51915.63;;;-145.06;74.61
6530;BME280;3298;42.688;23.366;2022-12-18T01:13:47;51901.28;;;-145.06;74.71
6530;BME280;3298;42.688;23.366;2022-12-18T01:16:15;51927.91;;;-145.06;74.41
6530;BME280;3298;42.688;23.366;2022-12-18T01:18:43;51921.75;;;-145.06;74.08
6530;BME280;3298;42.688;23.366;2022-12-18T01:21:12;51923.81;;;-145.06;74.16
6530;BME280;3298;42.688;23.366;2022-12-18T01:23:40;51942.22;;;-145.06;74.67
6530;BME280;3298;42.688;23.366;2022-12-18T01:26:07;51934.03;;;-145.06;74.25
6530;BME280;3298;42.688;23.366;2022-12-18T01:28:34;51934.03;;;-145.06;74.37
6530;BME280;3298;42.688;23.366;2022-12-18T01:31:16;51919.72;;;-145.06;73.55
6530;BME280;3298;42.688;23.366;2022-12-18T01:33:43;51934.03;;;-145.06;73.88
6530;BME280;3298;42.688;23.366;2022-12-18T01:36:18;51950.41;;;-145.06;73.67
6530;BME280;3298;42.688;23.366;2022-12-18T01:38:46;51921.75;;;-145.06;74.25
6530;BME280;3298;42.688;23.366;2022-12-18T01:41:13;51938.13;;;-145.06;75.11
6530;BME280;3298;42.688;23.366;2022-12-18T01:43:48;51917.66;;;-145.06;74.89
6530;BME280;3298;42.688;23.366;2022-12-18T01:46:17;51942.22;;;-145.06;74.80
6530;BME280;3298;42.688;23.366;2022-12-18T01:48:47;51915.63;;;-145.06;75.76
6530;BME280;3298;42.688;23.366;2022-12-18T01:51:14;51909.47;;;-145.06;75.40
6530;BME280;3298;42.688;23.366;2022-12-18T01:53:43;51925.84;;;-145.06;75.37
6530;BME280;3298;42.688;23.366;2022-12-18T01:56:13;51925.84;;;-145.06;75.03
6530;BME280;3298;42.688;23.366;2022-12-18T01:58:48;51938.13;;;-145.06;75.71
6530;BME280;3298;42.688;23.366;2022-12-18T02:01:18;51925.84;;;-145.06;76.40
6530;BME280;3298;42.688;23.366;2022-12-18T02:03:46;51929.94;;;-145.06;75.21
6530;BME280;3298;42.688;23.366;2022-12-18T02:06:15;51891.06;;;-145.06;75.03
6530;BME280;3298;42.688;23.366;2022-12-18T02:09:01;51917.66;;;-145.06;74.35
6530;BME280;3298;42.688;23.366;2022-12-18T02:11:39;51915.63;;;-145.06;74.34
6530;BME280;3298;42.688;23.366;2022-12-18T02:14:17;51925.84;;;-145.06;74.01
6530;BME280;3298;42.688;23.366;2022-12-18T02:16:50;51913.56;;;-145.06;74.43
6530;BME280;3298;42.688;23.366;2022-12-18T02:19:34;51897.19;;;-145.06;73.93
6530;BME280;3298;42.688;23.366;2022-12-18T02:22:24;51934.03;;;-145.06;74.00
6530;BME280;3298;42.688;23.366;2022-12-18T02:25:01;51925.84;;;-145.06;73.69
6530;BME280;3298;42.688;23.366;2022-12-18T02:27:34;51901.28;;;-145.06;74.20
6530;BME280;3298;42.688;23.366;2022-12-18T02:30:03;51921.75;;;-145.06;74.56
6530;BME280;3298;42.688;23.366;2022-12-18T02:32:34;51932.00;;;-145.06;74.27
6530;BME280;3298;42.688;23.366;2022-12-18T02:35:05;51948.38;;;-145.06;73.88
6530;BME280;3298;42.688;23.366;2022-12-18T02:37:34;51913.56;;;-145.06;74.32
6530;BME280;3298;42.688;23.366;2022-12-18T02:40:03;51913.56;;;-145.06;75.30
6530;BME280;3298;42.688;23.366;2022-12-18T02:42:31;51925.84;;;-145.06;74.40
6530;BME280;3298;42.688;23.366;2022-12-18T02:44:59;51923.81;;;-145.06;74.91
6530;BME280;3298;42.688;23.366;2022-12-18T02:47:30;51938.13;;;-145.06;74.99
6530;BME280;3298;42.688;23.366;2022-12-18T02:50:02;51901.28;;;-145.06;75.25
6530;BME280;3298;42.688;23.366;2022-12-18T02:52:39;51946.31;;;-145.06;74.69
6530;BME280;3298;42.688;23.366;2022-12-18T02:55:19;51905.38;;;-145.06;74.17
6530;BME280;3298;42.688;23.366;2022-12-18T02:57:52;51886.97;;;-145.06;76.02
6530;BME280;3298;42.688;23.366;2022-12-18T03:00:23;51925.84;;;-145.06;75.87
6530;BME280;3298;42.688;23.366;2022-12-18T03:02:57;51923.81;;;-145.06;75.49
6530;BME280;3298;42.688;23.366;2022-12-18T03:05:30;51925.84;;;-145.06;75.96
6530;BME280;3298;42.688;23.366;2022-12-18T03:08:02;51929.94;;;-145.06;75.43
6530;BME280;3298;42.688;23.366;2022-12-18T03:10:32;51917.66;;;-145.06;75.15
6530;BME280;3298;42.688;23.366;2022-12-18T03:13:04;51938.13;;;-145.06;75.25
6530;BME280;3298;42.688;23.366;2022-12-18T03:15:37;51901.28;;;-145.06;74.75
6530;BME280;3298;42.688;23.366;2022-12-18T03:18:07;51884.91;;;-145.06;75.24
6530;BME280;3298;42.688;23.366;2022-12-18T03:20:37;51903.34;;;-145.06;75.13
6530;BME280;3298;42.688;23.366;2022-12-18T03:23:09;51886.97;;;-145.06;74.22
6530;BME280;3298;42.688;23.366;2022-12-18T03:25:39;51921.75;;;-145.06;74.02
6530;BME280;3298;42.688;23.366;2022-12-18T03:28:09;51936.09;;;-145.06;73.80
6530;BME280;3298;42.688;23.366;2022-12-18T03:30:41;51895.16;;;-145.06;73.21
6530;BME280;3298;42.688;23.366;2022-12-18T03:33:12;51913.56;;;-145.06;73.51
6530;BME280;3298;42.688;23.366;2022-12-18T03:35:43;51915.63;;;-145.06;73.05
6530;BME280;3298;42.688;23.366;2022-12-18T03:38:10;51903.34;;;-145.06;72.82
6530;BME280;3298;42.688;23.366;2022-12-18T03:40:45;51917.66;;;-145.06;72.51
6530;BME280;3298;42.688;23.366;2022-12-18T03:43:20;51872.66;;;-145.06;72.49
6530;BME280;3298;42.688;23.366;2022-12-18T03:45:56;51897.19;;;-145.06;72.47
6530;BME280;3298;42.688;23.366;2022-12-18T03:48:30;51897.19;;;-145.06;72.15
6530;BME280;3298;42.688;23.366;2022-12-18T03:51:02;51862.41;;;-145.06;71.65
6530;BME280;3298;42.688;23.366;2022-12-18T03:53:37;51876.75;;;-145.06;71.10
6530;BME280;3298;42.688;23.366;2022-12-18T03:56:08;51895.16;;;-145.06;69.99
6530;BME280;3298;42.688;23.366;2022-12-18T03:58:37;51886.97;;;-145.06;70.27
6530;BME280;3298;42.688;23.366;2022-12-18T04:01:07;51911.53;;;-145.06;69.95
6530;BME280;3298;42.688;23.366;2022-12-18T04:03:35;51880.81;;;-145.06;69.59
6530;BME280;3298;42.688;23.366;2022-12-18T04:06:03;51889.00;;;-145.06;70.34
6530;BME280;3298;42.688;23.366;2022-12-18T04:08:30;51897.19;;;-145.06;70.77
6530;BME280;3298;42.688;23.366;2022-12-18T04:10:57;51897.19;;;-145.06;70.58
6530;BME280;3298;42.688;23.366;2022-12-18T04:13:27;51897.19;;;-145.06;70.30
6530;BME280;3298;42.688;23.366;2022-12-18T04:15:54;51886.97;;;-145.06;69.96
6530;BME280;3298;42.688;23.366;2022-12-18T04:18:22;51917.66;;;-145.06;69.38
6530;BME280;3298;42.688;23.366;2022-12-18T04:20:49;51889.00;;;-145.06;69.15
6530;BME280;3298;42.688;23.366;2022-12-18T04:23:16;51864.47;;;-145.06;68.63
6530;BME280;3298;42.688;23.366;2022-12-18T04:25:43;51882.88;;;-145.06;68.69
6530;BME280;3298;42.688;23.366;2022-12-18T04:28:09;51882.88;;;-145.06;68.94
6530;BME280;3298;42.688;23.366;2022-12-18T04:30:36;51866.50;;;-145.06;68.60
6530;BME280;3298;42.688;23.366;2022-12-18T04:33:03;51880.81;;;-145.06;68.05
6530;BME280;3298;42.688;23.366;2022-12-18T04:35:31;51864.47;;;-145.06;69.14
6530;BME280;3298;42.688;23.366;2022-12-18T04:37:58;51901.28;;;-145.06;68.31
6530;BME280;3298;42.688;23.366;2022-12-18T04:40:25;51884.91;;;-145.06;68.27
6530;BME280;3298;42.688;23.366;2022-12-18T04:42:51;51870.59;;;-145.06;67.53
6530;BME280;3298;42.688;23.366;2022-12-18T04:45:18;51891.06;;;-145.06;67.63
6530;BME280;3298;42.688;23.366;2022-12-18T04:47:45;51880.81;;;-145.06;66.96
6530;BME280;3298;42.688;23.366;2022-12-18T04:50:12;51868.56;;;-145.06;67.02
6530;BME280;3298;42.688;23.366;2022-12-18T04:52:40;51872.66;;;-145.06;66.35
6530;BME280;3298;42.688;23.366;2022-12-18T04:55:07;51868.56;;;-145.06;66.01
6530;BME280;3298;42.688;23.366;2022-12-18T04:57:34;51868.56;;;-145.06;65.75
6530;BME280;3298;42.688;23.366;2022-12-18T05:00:00;51862.41;;;-145.06;65.99
6530;BME280;3298;42.688;23.366;2022-12-18T05:02:27;51848.09;;;-145.06;65.44
6530;BME280;3298;42.688;23.366;2022-12-18T05:04:54;51860.38;;;-145.06;65.49
6530;BME280;3298;42.688;23.366;2022-12-18T05:07:21;51872.66;;;-145.06;65.88
6530;BME280;3298;42.688;23.366;2022-12-18T05:09:49;51872.66;;;-145.06;65.73
6530;BME280;3298;42.688;23.366;2022-12-18T05:12:16;51852.19;;;-145.06;65.83
6530;BME280;3298;42.688;23.366;2022-12-18T05:14:42;51854.22;;;-145.06;65.83
6530;BME280;3298;42.688;23.366;2022-12-18T05:17:09;51864.47;;;-145.06;66.20
6530;BME280;3298;42.688;23.366;2022-12-18T05:19:36;51862.41;;;-145.06;66.38
6530;BME280;3298;42.688;23.366;2022-12-18T05:22:03;51862.41;;;-145.06;66.03
6530;BME280;3298;42.688;23.366;2022-12-18T05:24:30;51868.56;;;-145.06;66.21
6530;BME280;3298;42.688;23.366;2022-12-18T05:26:58;51860.38;;;-145.06;66.04
6530;BME280;3298;42.688;23.366;2022-12-18T05:29:24;51848.09;;;-145.06;66.51
6530;BME280;3298;42.688;23.366;2022-12-18T05:31:51;51870.59;;;-145.06;66.69
6530;BME280;3298;42.688;23.366;2022-12-18T05:34:18;51860.38;;;-145.06;67.21
6530;BME280;3298;42.688;23.366;2022-12-18T05:36:45;51866.50;;;-145.06;67.02
6530;BME280;3298;42.688;23.366;2022-12-18T05:39:12;51829.66;;;-145.06;66.69
6530;BME280;3298;42.688;23.366;2022-12-18T05:41:38;51854.22;;;-145.06;66.93
6530;BME280;3298;42.688;23.366;2022-12-18T05:44:07;51886.97;;;-145.06;65.92
6530;BME280;3298;42.688;23.366;2022-12-18T05:46:33;51856.28;;;-145.06;65.94
6530;BME280;3298;42.688;23.366;2022-12-18T05:49:01;51852.19;;;-145.06;65.22
6530;BME280;3298;42.688;23.366;2022-12-18T05:51:28;51895.16;;;-145.06;64.68
6530;BME280;3298;42.688;23.366;2022-12-18T05:53:55;51868.56;;;-145.06;64.78
6530;BME280;3298;42.688;23.366;2022-12-18T05:56:22;51852.19;;;-145.06;65.21
6530;BME280;3298;42.688;23.366;2022-12-18T05:58:51;51868.56;;;-145.06;64.81
6530;BME280;3298;42.688;23.366;2022-12-18T06:01:21;51864.47;;;-145.06;65.32
6530;BME280;3298;42.688;23.366;2022-12-18T06:03:48;51846.03;;;-145.06;65.26
6530;BME280;3298;42.688;23.366;2022-12-18T06:06:17;51872.66;;;-145.06;65.08
6530;BME280;3298;42.688;23.366;2022-12-18T06:08:44;51882.88;;;-145.06;65.31
6530;BME280;3298;42.688;23.366;2022-12-18T06:11:11;51862.41;;;-145.06;65.81
6530;BME280;3298;42.688;23.366;2022-12-18T06:13:38;51862.41;;;-145.06;65.08
6530;BME280;3298;42.688;23.366;2022-12-18T06:16:05;51856.28;;;-145.06;64.78
6530;BME280;3298;42.688;23.366;2022-12-18T06:18:37;51856.28;;;-145.06;64.89
6530;BME280;3298;42.688;23.366;2022-12-18T06:21:04;51858.31;;;-145.06;64.24
6530;BME280;3298;42.688;23.366;2022-12-18T06:23:31;51864.47;;;-145.06;64.07
6530;BME280;3298;42.688;23.366;2022-12-18T06:25:57;51852.19;;;-145.06;64.08
6530;BME280;3298;42.688;23.366;2022-12-18T06:28:24;51864.47;;;-145.06;63.96
6530;BME280;3298;42.688;23.366;2022-12-18T06:30:51;51841.94;;;-145.06;64.50
6530;BME280;3298;42.688;23.366;2022-12-18T06:33:18;51829.66;;;-145.06;64.81
6530;BME280;3298;42.688;23.366;2022-12-18T06:35:46;51858.31;;;-145.06;64.36
6530;BME280;3298;42.688;23.366;2022-12-18T06:38:13;51835.81;;;-145.06;64.60
6530;BME280;3298;42.688;23.366;2022-12-18T06:40:40;51860.38;;;-145.06;64.54
6530;BME280;3298;42.688;23.366;2022-12-18T06:43:06;51852.19;;;-145.06;64.12
6530;BME280;3298;42.688;23.366;2022-12-18T06:45:34;51850.13;;;-145.06;63.79
6530;BME280;3298;42.688;23.366;2022-12-18T06:48:00;51860.38;;;-145.06;63.58
6530;BME280;3298;42.688;23.366;2022-12-18T06:50:27;51854.22;;;-145.06;63.38
6530;BME280;3298;42.688;23.366;2022-12-18T06:52:56;51839.91;;;-145.06;63.59
6530;BME280;3298;42.688;23.366;2022-12-18T06:55:22;51852.19;;;-145.06;63.64
6530;BME280;3298;42.688;23.366;2022-12-18T06:57:49;51829.66;;;-145.06;62.83
6530;BME280;3298;42.688;23.366;2022-12-18T07:00:16;51852.19;;;-145.06;62.57
6530;BME280;3298;42.688;23.366;2022-12-18T07:02:43;51872.66;;;-145.06;61.77
6530;BME280;3298;42.688;23.366;2022-12-18T07:05:10;51848.09;;;-145.06;61.04
6530;BME280;3298;42.688;23.366;2022-12-18T07:07:37;51854.22;;;-145.06;60.66
6530;BME280;3298;42.688;23.366;2022-12-18T07:10:06;51864.47;;;-145.06;60.01
6530;BME280;3298;42.688;23.366;2022-12-18T07:12:32;51864.47;;;-145.06;59.74
6530;BME280;3298;42.688;23.366;2022-12-18T07:14:59;51848.09;;;-145.06;60.27
6530;BME280;3298;42.688;23.366;2022-12-18T07:17:26;51846.03;;;-145.06;60.71
6530;BME280;3298;42.688;23.366;2022-12-18T07:19:53;51846.03;;;-145.06;60.98
6530;BME280;3298;42.688;23.366;2022-12-18T07:22:21;51868.56;;;-145.06;61.57
6530;BME280;3298;42.688;23.366;2022-12-18T07:24:48;51841.94;;;-145.06;61.59
6530;BME280;3298;42.688;23.366;2022-12-18T07:27:16;51848.09;;;-145.06;61.85
6530;BME280;3298;42.688;23.366;2022-12-18T07:29:43;51856.28;;;-145.06;61.75
6530;BME280;3298;42.688;23.366;2022-12-18T07:32:10;51862.41;;;-145.06;62.23
6530;BME280;3298;42.688;23.366;2022-12-18T07:34:36;51852.19;;;-145.06;62.04
6530;BME280;3298;42.688;23.366;2022-12-18T07:37:03;51841.94;;;-145.06;62.09
6530;BME280;3298;42.688;23.366;2022-12-18T07:39:31;51966.78;;;-145.06;61.63
6530;BME280;3298;42.688;23.366;2022-12-18T07:41:57;51839.91;;;-145.06;62.02
6530;BME280;3298;42.688;23.366;2022-12-18T07:44:43;51825.56;;;-145.06;61.82
6530;BME280;3298;42.688;23.366;2022-12-18T07:47:10;51874.69;;;-145.06;62.33
6530;BME280;3298;42.688;23.366;2022-12-18T07:49:37;51852.19;;;-145.06;62.07
6530;BME280;3298;42.688;23.366;2022-12-18T07:52:04;51833.75;;;-145.06;62.41
6530;BME280;3298;42.688;23.366;2022-12-18T07:54:30;51848.09;;;-145.06;62.91
6530;BME280;3298;42.688;23.366;2022-12-18T07:56:57;51854.22;;;-145.06;62.65
6530;BME280;3298;42.688;23.366;2022-12-18T07:59:24;51872.66;;;-145.06;62.63
6530;BME280;3298;42.688;23.366;2022-12-18T08:01:52;51864.47;;;-145.06;62.98
6530;BME280;3298;42.688;23.366;2022-12-18T08:04:19;51839.91;;;-145.06;62.95
6530;BME280;3298;42.688;23.366;2022-12-18T08:06:46;51846.03;;;-145.06;63.06
6530;BME280;3298;42.688;23.366;2022-12-18T08:09:13;51852.19;;;-145.06;63.36
6530;BME280;3298;42.688;23.366;2022-12-18T08:11:40;51868.56;;;-145.06;63.48
6530;BME280;3298;42.688;23.366;2022-12-18T08:14:06;51856.28;;;-145.06;63.91
6530;BME280;3298;42.688;23.366;2022-12-18T08:16:33;51831.72;;;-145.06;64.30
6530;BME280;3298;42.688;23.366;2022-12-18T08:19:02;51866.50;;;-145.06;63.66
6530;BME280;3298;42.688;23.366;2022-12-18T08:21:30;51839.91;;;-145.06;64.09
6530;BME280;3298;42.688;23.366;2022-12-18T08:23:58;51862.41;;;-145.06;63.92
6530;BME280;3298;42.688;23.366;2022-12-18T08:26:27;51870.59;;;-145.06;64.07
6530;BME280;3298;42.688;23.366;2022-12-18T08:28:54;51856.28;;;-145.06;63.50
6530;BME280;3298;42.688;23.366;2022-12-18T08:31:22;51856.28;;;-145.06;63.01
6530;BME280;3298;42.688;23.366;2022-12-18T08:33:49;51858.31;;;-145.06;63.14
6530;BME280;3298;42.688;23.366;2022-12-18T08:36:18;51850.13;;;-145.06;62.89
6530;BME280;3298;42.688;23.366;2022-12-18T08:38:45;51850.13;;;-145.06;62.12
6530;BME280;3298;42.688;23.366;2022-12-18T08:41:14;51848.09;;;-145.06;62.10
6530;BME280;3298;42.688;23.366;2022-12-18T08:43:41;51833.75;;;-145.06;61.39
6530;BME280;3298;42.688;23.366;2022-12-18T08:46:26;51848.09;;;-145.06;62.25
6530;BME280;3298;42.688;23.366;2022-12-18T08:48:54;51852.19;;;-145.06;61.65
6530;BME280;3298;42.688;23.366;2022-12-18T08:51:22;51829.66;;;-145.06;60.84
6530;BME280;3298;42.688;23.366;2022-12-18T08:53:49;51866.50;;;-145.06;59.79
6530;BME280;3298;42.688;23.366;2022-12-18T08:56:16;51827.63;;;-145.06;60.15
6530;BME280;3298;42.688;23.366;2022-12-18T08:58:43;51829.66;;;-145.06;59.85
6530;BME280;3298;42.688;23.366;2022-12-18T09:01:11;51821.47;;;-145.06;59.84
6530;BME280;3298;42.688;23.366;2022-12-18T09:03:39;51856.28;;;-145.06;59.78
6530;BME280;3298;42.688;23.366;2022-12-18T09:06:06;51866.50;;;-145.06;59.75
6530;BME280;3298;42.688;23.366;2022-12-18T09:08:35;51848.09;;;-145.06;59.50
6530;BME280;3298;42.688;23.366;2022-12-18T09:11:03;51839.91;;;-145.06;58.87
6530;BME280;3298;42.688;23.366;2022-12-18T09:13:30;51848.09;;;-145.06;58.91
6530;BME280;3298;42.688;23.366;2022-12-18T09:15:57;51819.44;;;-145.06;58.51
6530;BME280;3298;42.688;23.366;2022-12-18T09:18:24;51839.91;;;-145.06;58.07
6530;BME280;3298;42.688;23.366;2022-12-18T09:20:51;51848.09;;;-145.06;58.25
6530;BME280;3298;42.688;23.366;2022-12-18T09:23:18;51852.19;;;-145.06;57.97
6530;BME280;3298;42.688;23.366;2022-12-18T09:25:46;51839.91;;;-145.06;57.28
6530;BME280;3298;42.688;23.366;2022-12-18T09:28:14;51864.47;;;-145.06;57.53
6530;BME280;3298;42.688;23.366;2022-12-18T09:30:45;51864.47;;;-145.06;57.29
6530;BME280;3298;42.688;23.366;2022-12-18T09:33:12;51819.44;;;-145.06;57.11
6530;BME280;3298;42.688;23.366;2022-12-18T09:35:39;51844.00;;;-145.06;57.76
6530;BME280;3298;42.688;23.366;2022-12-18T09:38:08;51831.72;;;-145.06;56.80
6530;BME280;3298;42.688;23.366;2022-12-18T09:40:42;51839.91;;;-145.06;56.95
6530;BME280;3298;42.688;23.366;2022-12-18T09:43:18;51835.81;;;-145.06;57.03
6530;BME280;3298;42.688;23.366;2022-12-18T09:45:49;51835.81;;;-145.06;56.44
6530;BME280;3298;42.688;23.366;2022-12-18T09:48:22;51831.72;;;-145.06;56.10
6530;BME280;3298;42.688;23.366;2022-12-18T09:50:50;51815.34;;;-145.06;56.23
6530;BME280;3298;42.688;23.366;2022-12-18T09:53:21;51844.00;;;-145.06;55.90
6530;BME280;3298;42.688;23.366;2022-12-18T09:55:50;51872.66;;;-145.06;56.64
6530;BME280;3298;42.688;23.366;2022-12-18T09:58:26;51815.34;;;-145.06;55.61
6530;BME280;3298;42.688;23.366;2022-12-18T10:00:55;51827.63;;;-145.06;55.49
6530;BME280;3298;42.688;23.366;2022-12-18T10:03:22;51852.19;;;-145.06;54.95
6530;BME280;3298;42.688;23.366;2022-12-18T10:05:57;51844.00;;;-145.06;54.53
6530;BME280;3298;42.688;23.366;2022-12-18T10:08:34;51833.75;;;-145.06;54.49
6530;BME280;3298;42.688;23.366;2022-12-18T10:11:15;51827.63;;;-145.06;54.60
6530;BME280;3298;42.688;23.366;2022-12-18T10:13:52;51839.91;;;-145.06;54.28
6530;BME280;3298;42.688;23.366;2022-12-18T10:16:27;51829.66;;;-145.06;54.31
6530;BME280;3298;42.688;23.366;2022-12-18T10:19:08;51852.19;;;-145.06;54.33
6530;BME280;3298;42.688;23.366;2022-12-18T10:21:51;51841.94;;;-145.06;53.73
6530;BME280;3298;42.688;23.366;2022-12-18T10:24:26;51848.09;;;-145.06;53.36
6530;BME280;3298;42.688;23.366;2022-12-18T10:26:55;51835.81;;;-145.06;53.74
6530;BME280;3298;42.688;23.366;2022-12-18T10:29:28;51852.19;;;-145.06;54.01
6530;BME280;3298;42.688;23.366;2022-12-18T10:31:55;51844.00;;;-145.06;53.29
6530;BME280;3298;42.688;23.366;2022-12-18T10:34:23;51844.00;;;-145.06;53.68
6530;BME280;3298;42.688;23.366;2022-12-18T10:36:50;51854.22;;;-145.06;53.55
6530;BME280;3298;42.688;23.366;2022-12-18T10:39:18;51848.09;;;-145.06;53.21
6530;BME280;3298;42.688;23.366;2022-12-18T10:41:45;51831.72;;;-145.06;53.58
6530;BME280;3298;42.688;23.366;2022-12-18T10:44:17;51850.13;;;-145.06;53.72
6530;BME280;3298;42.688;23.366;2022-12-18T10:46:48;51839.91;;;-145.06;53.92
6530;BME280;3298;42.688;23.366;2022-12-18T10:49:21;51846.03;;;-145.06;53.81
6530;BME280;3298;42.688;23.366;2022-12-18T10:51:48;51850.13;;;-145.06;54.65
6530;BME280;3298;42.688;23.366;2022-12-18T10:54:17;51856.28;;;-145.06;54.78
6530;BME280;3298;42.688;23.366;2022-12-18T10:56:45;51827.63;;;-145.06;54.59
6530;BME280;3298;42.688;23.366;2022-12-18T10:59:16;51835.81;;;-145.06;54.71
6530;BME280;3298;42.688;23.366;2022-12-18T11:01:50;51796.91;;;-145.06;54.66
6530;BME280;3298;42.688;23.366;2022-12-18T11:04:19;51846.03;;;-145.06;55.26
6530;BME280;3298;42.688;23.366;2022-12-18T11:06:55;51813.28;;;-145.06;55.64
6530;BME280;3298;42.688;23.366;2022-12-18T11:09:24;51839.91;;;-145.06;55.61
6530;BME280;3298;42.688;23.366;2022-12-18T11:11:53;51848.09;;;-145.06;55.40
6530;BME280;3298;42.688;23.366;2022-12-18T11:14:22;51848.09;;;-145.06;55.28
6530;BME280;3298;42.688;23.366;2022-12-18T11:16:52;51831.72;;;-145.06;55.27
6530;BME280;3298;42.688;23.366;2022-12-18T11:19:24;51839.91;;;-145.06;54.23
6530;BME280;3298;42.688;23.366;2022-12-18T11:21:52;51841.94;;;-145.06;53.97
6530;BME280;3298;42.688;23.366;2022-12-18T11:24:22;51831.72;;;-145.06;53.94
6530;BME280;3298;42.688;23.366;2022-12-18T11:26:51;51813.28;;;-145.06;53.71
6530;BME280;3298;42.688;23.366;2022-12-18T11:29:23;51839.91;;;-145.06;53.44
6530;BME280;3298;42.688;23.366;2022-12-18T11:34:53;51835.81;;;-145.06;53.80
6530;BME280;3298;42.688;23.366;2022-12-18T11:37:24;51846.03;;;-145.06;54.00
6530;BME280;3298;42.688;23.366;2022-12-18T11:39:54;51823.53;;;-145.06;53.85
6530;BME280;3298;42.688;23.366;2022-12-18T11:42:25;51889.00;;;-145.06;53.74
6530;BME280;3298;42.688;23.366;2022-12-18T11:44:58;51866.50;;;-145.06;53.64
6530;BME280;3298;42.688;23.366;2022-12-18T11:47:33;51841.94;;;-145.06;53.16
6530;BME280;3298;42.688;23.366;2022-12-18T11:50:12;51831.72;;;-145.06;53.18
6530;BME280;3298;42.688;23.366;2022-12-18T11:52:40;51813.28;;;-145.06;53.67
6530;BME280;3298;42.688;23.366;2022-12-18T11:55:12;51862.41;;;-145.06;53.37
6530;BME280;3298;42.688;23.366;2022-12-18T11:57:46;51835.81;;;-145.06;53.11
6530;BME280;3298;42.688;23.366;2022-12-18T12:00:18;51839.91;;;-145.06;53.13
6530;BME280;3298;42.688;23.366;2022-12-18T12:03:11;51835.81;;;-145.06;53.09
6530;BME280;3298;42.688;23.366;2022-12-18T12:05:48;51844.00;;;-145.06;53.06
6530;BME280;3298;42.688;23.366;2022-12-18T12:08:22;51850.13;;;-145.06;53.49
6530;BME280;3298;42.688;23.366;2022-12-18T12:11:00;51844.00;;;-145.06;53.11
6530;BME280;3298;42.688;23.366;2022-12-18T12:13:40;51833.75;;;-145.06;53.20
6530;BME280;3298;42.688;23.366;2022-12-18T12:16:17;51823.53;;;-145.06;53.39
6530;BME280;3298;42.688;23.366;2022-12-18T12:19:02;51827.63;;;-145.06;53.25
6530;BME280;3298;42.688;23.366;2022-12-18T12:21:39;51835.81;;;-145.06;53.41
6530;BME280;3298;42.688;23.366;2022-12-18T12:24:20;51823.53;;;-145.06;53.14
6530;BME280;3298;42.688;23.366;2022-12-18T12:26:58;51831.72;;;-145.06;53.20
6530;BME280;3298;42.688;23.366;2022-12-18T12:29:37;51844.00;;;-145.06;53.18
6530;BME280;3298;42.688;23.366;2022-12-18T12:32:20;51829.66;;;-145.06;53.16
6530;BME280;3298;42.688;23.366;2022-12-18T12:34:59;51827.63;;;-145.06;52.45
6530;BME280;3298;42.688;23.366;2022-12-18T12:37:39;51835.81;;;-145.06;52.50
6530;BME280;3298;42.688;23.366;2022-12-18T12:40:16;51848.09;;;-145.06;52.85
6530;BME280;3298;42.688;23.366;2022-12-18T12:42:47;51831.72;;;-145.06;52.53
6530;BME280;3298;42.688;23.366;2022-12-18T12:45:36;51846.03;;;-145.06;52.19
6530;BME280;3298;42.688;23.366;2022-12-18T12:48:05;51825.56;;;-145.06;52.64
6530;BME280;3298;42.688;23.366;2022-12-18T12:50:35;51829.66;;;-145.06;52.58
6530;BME280;3298;42.688;23.366;2022-12-18T12:53:07;51866.50;;;-145.06;53.02
6530;BME280;3298;42.688;23.366;2022-12-18T12:55:35;51831.72;;;-145.06;52.77
6530;BME280;3298;42.688;23.366;2022-12-18T12:58:18;51823.53;;;-145.06;52.99
6530;BME280;3298;42.688;23.366;2022-12-18T13:00:55;51827.63;;;-145.06;53.04
6530;BME280;3298;42.688;23.366;2022-12-18T13:03:35;51854.22;;;-145.06;53.16
6530;BME280;3298;42.688;23.366;2022-12-18T13:06:14;51848.09;;;-145.06;52.79
6530;BME280;3298;42.688;23.366;2022-12-18T13:08:55;51848.09;;;-145.06;52.78